Kezdőlap
METAR-TAF:

METAR-TAF

Repülőterek :

Milánó-Linatei repülőtér

Milánó, Olaszország

földrajzi szélesség: 45-26N, földrajzi hosszúság: 009-17E, magasság: 107 m

Jelenlegi meteorológiai megfigyelések

A jelentés 26 perccel ezelõtt készült, 00:20 UTC
Észak-északkeleti szél 2 kt
Hőmérséklet 8°C
Páratartalom 66%
Légköri nyomás 1024 hPa
Látótávolság 10 km, vagy több

METAR: LIML 050020Z AUTO 03002KT 9999 NCD 08/02 Q1024

Idő: 02:46 (00:46 UTC)

Előrejelzés

A jelentés 7 órával és 46 perccel ezelõtt készült, 17:00 UTC
Az előrejelzés 04-én 18 óra UTC és 05-én 18 óra UTC között érvényes
Különbözõ irányokból fújó szél 5 kt
Látótávolság 10 km, vagy több
felhőtlen 1500 m magasságban, és nincs gomolyfelhõ

TAF: LIML 041700Z 0418/0518 VRB05KT CAVOK

Meteorológiai megfigyelések és előrejelzések több, mint 4000 repülőtéren (METAR és TAF jelentéseket).

A térképen piros és sárga pontok jelzik az elérhető meteorológiai állomásokat.

Mozgassa az egeret a pont fölött, hogy megjelenjen az állomás neve.

Azután kattintson az időjárási megfigyelések és előrejelzések megtekintéséhez.

A térkép megváltoztatása: kattintson a fekete keresztel jelölt zöld gombra ráközelítéshez, a vonallal jelölt zöld gombra távolításhoz, vagy a zöld nyilakra a szomszédos térképek eléréséhez.


METAR-TAF: